Time;durP1;ratioP1;P1;durP2;ratioP2;P2;SDS_P1;SDS_P2;PMS_P1;PMS_P2;Temp;Humidity;BMP_temperature;BMP_pressure;BME280_temperature;BME280_humidity;BME280_pressure;Samples;Min_cycle;Max_cycle;Signal;HPM_P1;HPM_P2
2023/08/09 00:01:59;;;;;;;;;;;;;;;12.85;100.00;97616.89;110226;1242;58830;-68
2023/08/09 00:04:29;;;;;;;;;;;;;;;12.64;100.00;97620.10;110257;1241;58925;-71
2023/08/09 00:06:59;;;;;;;;;;;;;;;12.55;100.00;97621.50;110274;1242;69886;-68
2023/08/09 00:09:30;;;;;;;;;;;;;;;12.47;100.00;97619.33;110207;1242;69255;-70
2023/08/09 00:11:59;;;;;;;;;;;;;;;12.40;100.00;97624.95;110221;1242;68521;-68
2023/08/09 00:14:30;;;;;;;;;;;;;;;12.33;100.00;97620.63;110257;1242;58862;-68
2023/08/09 00:17:03;;;;;;;;;;;;;;;12.26;100.00;97620.08;110277;1242;58948;-70
2023/08/09 00:19:35;;;;;;;;;;;;;;;12.18;100.00;97620.30;110284;1240;70395;-69
2023/08/09 00:22:08;;;;;;;;;;;;;;;12.12;100.00;97621.11;110254;1242;69229;-69
2023/08/09 00:24:39;;;;;;;;;;;;;;;12.11;100.00;97620.70;110210;1242;68508;-70
2023/08/09 00:27:11;;;;;;;;;;;;;;;12.06;100.00;97615.52;110230;1242;58869;-70
2023/08/09 00:29:42;;;;;;;;;;;;;;;12.02;100.00;97609.85;110238;1242;58827;-71
2023/08/09 00:32:15;;;;;;;;;;;;;;;11.99;100.00;97611.84;110160;1244;70482;-70
2023/08/09 00:34:47;;;;;;;;;;;;;;;11.95;100.00;97613.85;110208;1241;67483;-70
2023/08/09 00:37:19;;;;;;;;;;;;;;;11.91;100.00;97615.72;110216;1241;68304;-70
2023/08/09 00:39:50;;;;;;;;;;;;;;;11.89;100.00;97612.59;110178;1241;58888;-68
2023/08/09 00:42:23;;;;;;;;;;;;;;;11.84;100.00;97608.92;110183;1242;58901;-69
2023/08/09 00:44:55;;;;;;;;;;;;;;;11.80;100.00;97613.05;110219;1240;70886;-71
2023/08/09 00:47:28;;;;;;;;;;;;;;;11.75;100.00;97606.80;110215;1240;67725;-69
2023/08/09 00:50:00;;;;;;;;;;;;;;;11.70;100.00;97614.27;110192;1243;69230;-69
2023/08/09 00:52:33;;;;;;;;;;;;;;;11.67;100.00;97618.89;110137;1242;59004;-69
2023/08/09 00:55:06;;;;;;;;;;;;;;;11.64;100.00;97619.29;110196;1242;58840;-69
2023/08/09 00:57:40;;;;;;;;;;;;;;;11.58;100.00;97623.04;110211;1242;69879;-69
2023/08/09 01:00:11;;;;;;;;;;;;;;;11.54;100.00;97624.25;110177;1241;68485;-68
2023/08/09 01:02:45;;;;;;;;;;;;;;;11.50;100.00;97622.92;110220;1242;68749;-69
2023/08/09 01:05:18;;;;;;;;;;;;;;;11.44;100.00;97619.15;110216;1242;58891;-69
2023/08/09 01:08:07;;;;;;;;;;;;;;;11.39;100.00;97616.55;110305;1242;58886;-69
2023/08/09 01:10:49;;;;;;;;;;;;;;;11.35;100.00;97611.66;110246;1240;70600;-70
2023/08/09 01:13:22;;;;;;;;;;;;;;;11.32;100.00;97609.78;110244;1241;69159;-71
2023/08/09 01:15:56;;;;;;;;;;;;;;;11.28;100.00;97614.81;110224;1241;69085;-68
2023/08/09 01:18:28;;;;;;;;;;;;;;;11.24;100.00;97612.08;110218;1241;58865;-69
2023/08/09 01:21:05;;;;;;;;;;;;;;;11.20;100.00;97609.03;110167;1243;58877;-69
2023/08/09 01:23:38;;;;;;;;;;;;;;;11.19;100.00;97609.86;110257;1241;70560;-69
2023/08/09 01:26:11;;;;;;;;;;;;;;;11.16;100.00;97618.60;110151;1243;69123;-69
2023/08/09 01:28:52;;;;;;;;;;;;;;;11.13;100.00;97615.66;110254;1241;68627;-70
2023/08/09 01:31:25;;;;;;;;;;;;;;;11.09;100.00;97615.46;110221;1242;58869;-69
2023/08/09 01:34:00;;;;;;;;;;;;;;;11.06;100.00;97619.68;110249;1242;58960;-69
2023/08/09 01:36:43;;;;;;;;;;;;;;;11.01;100.00;97622.28;110255;1242;70691;-69
2023/08/09 01:39:32;;;;;;;;;;;;;;;10.96;100.00;97618.13;110254;1241;69232;-69
2023/08/09 01:42:15;;;;;;;;;;;;;;;10.93;100.00;97618.30;110242;1241;69270;-71
2023/08/09 01:44:51;;;;;;;;;;;;;;;10.91;100.00;97621.95;110117;1240;59039;-70
2023/08/09 01:47:24;;;;;;;;;;;;;;;10.87;100.00;97625.02;110203;1244;58872;-69
2023/08/09 01:49:59;;;;;;;;;;;;;;;10.81;100.00;97623.67;110286;1242;70030;-69
2023/08/09 01:52:32;;;;;;;;;;;;;;;10.77;100.00;97625.08;110178;1244;69059;-70
2023/08/09 01:55:09;;;;;;;;;;;;;;;10.73;100.00;97629.35;110244;1242;69316;-69
2023/08/09 01:57:42;;;;;;;;;;;;;;;10.69;100.00;97626.30;110293;1242;58890;-69
2023/08/09 02:00:19;;;;;;;;;;;;;;;10.65;100.00;97627.98;110274;1241;59211;-69
2023/08/09 02:02:56;;;;;;;;;;;;;;;10.61;100.00;97626.45;110265;1240;69730;-70
2023/08/09 02:05:29;;;;;;;;;;;;;;;10.59;100.00;97623.16;110273;1242;68375;-70
2023/08/09 02:08:04;;;;;;;;;;;;;;;10.58;100.00;97628.77;110127;1241;67562;-69
2023/08/09 02:10:37;;;;;;;;;;;;;;;10.60;100.00;97628.63;110252;1241;58880;-70
2023/08/09 02:13:07;;;;;;;;;;;;;;;10.62;100.00;97630.23;110301;1242;58856;-68
2023/08/09 02:15:38;;;;;;;;;;;;;;;10.64;100.00;97633.42;110260;1242;70003;-70
2023/08/09 02:18:18;;;;;;;;;;;;;;;10.67;100.00;97636.73;110287;1242;67711;-70
2023/08/09 02:20:50;;;;;;;;;;;;;;;10.69;100.00;97638.49;110262;1242;68523;-71
2023/08/09 02:23:23;;;;;;;;;;;;;;;10.70;100.00;97637.14;110264;1240;58924;-71
2023/08/09 02:25:59;;;;;;;;;;;;;;;10.75;100.00;97639.15;110287;1242;58878;-69
2023/08/09 02:28:30;;;;;;;;;;;;;;;10.78;100.00;97645.41;110115;1244;68679;-70
2023/08/09 02:31:04;;;;;;;;;;;;;;;10.80;100.00;97650.78;110305;1241;69357;-69
2023/08/09 02:33:35;;;;;;;;;;;;;;;10.81;100.00;97654.26;110214;1241;69355;-68
2023/08/09 02:36:05;;;;;;;;;;;;;;;10.89;100.00;97651.59;110134;1243;59706;-70
2023/08/09 02:38:37;;;;;;;;;;;;;;;10.95;100.00;97657.91;110242;1241;59744;-70
2023/08/09 02:41:11;;;;;;;;;;;;;;;10.94;100.00;97654.86;110247;1242;70647;-68
2023/08/09 02:43:41;;;;;;;;;;;;;;;10.81;100.00;97655.31;110232;1240;67741;-71
2023/08/09 02:46:12;;;;;;;;;;;;;;;10.76;100.00;97658.77;110228;1242;69492;-70
2023/08/09 02:48:43;;;;;;;;;;;;;;;10.71;100.00;97656.09;110243;1241;59729;-69
2023/08/09 02:51:14;;;;;;;;;;;;;;;10.70;100.00;97657.25;110276;1241;60085;-69
2023/08/09 02:53:59;;;;;;;;;;;;;;;10.69;100.00;97663.91;110244;1242;71981;-69
2023/08/09 02:56:30;;;;;;;;;;;;;;;10.68;100.00;97665.55;110260;1242;69308;-69
2023/08/09 02:59:01;;;;;;;;;;;;;;;10.76;100.00;97670.75;110266;1242;69213;-69
2023/08/09 03:01:30;;;;;;;;;;;;;;;10.87;100.00;97671.04;110133;1240;59703;-69
2023/08/09 03:04:00;;;;;;;;;;;;;;;10.74;100.00;97669.90;110234;1240;59675;-69
2023/08/09 03:06:32;;;;;;;;;;;;;;;10.70;100.00;97671.53;110188;1248;70458;-69
2023/08/09 03:09:03;;;;;;;;;;;;;;;10.69;100.00;97671.91;110219;1245;69262;-69
2023/08/09 03:11:34;;;;;;;;;;;;;;;10.69;100.00;97669.16;110215;1242;69612;-69
2023/08/09 03:14:05;;;;;;;;;;;;;;;10.68;100.00;97669.36;110192;1241;59810;-71
2023/08/09 03:16:35;;;;;;;;;;;;;;;10.67;100.00;97671.02;110178;1244;59673;-70
2023/08/09 03:19:06;;;;;;;;;;;;;;;10.67;100.00;97674.52;110139;1241;71290;-70
2023/08/09 03:21:37;;;;;;;;;;;;;;;10.64;100.00;97673.17;110188;1241;69218;-70
2023/08/09 03:24:06;;;;;;;;;;;;;;;10.63;100.00;97674.48;110247;1242;69267;-69
2023/08/09 03:26:36;;;;;;;;;;;;;;;10.61;100.00;97674.73;110241;1241;59755;-70
2023/08/09 03:29:08;;;;;;;;;;;;;;;10.63;100.00;97678.45;110195;1243;59679;-70
2023/08/09 03:31:39;;;;;;;;;;;;;;;10.63;100.00;97682.27;110186;1245;71213;-69
2023/08/09 03:34:10;;;;;;;;;;;;;;;10.69;100.00;97682.43;110262;1242;69277;-70
2023/08/09 03:36:40;;;;;;;;;;;;;;;10.67;100.00;97684.11;110257;1242;69099;-68
2023/08/09 03:39:12;;;;;;;;;;;;;;;10.67;100.00;97687.92;110271;1242;59754;-70
2023/08/09 03:41:43;;;;;;;;;;;;;;;10.73;100.00;97689.10;110197;1240;59670;-69
2023/08/09 03:44:13;;;;;;;;;;;;;;;10.72;100.00;97692.32;110140;1245;70575;-69
2023/08/09 03:46:43;;;;;;;;;;;;;;;10.73;100.00;97690.52;110182;1243;69315;-69
2023/08/09 03:49:13;;;;;;;;;;;;;;;10.78;100.00;97691.42;110225;1242;69256;-69
2023/08/09 03:51:44;;;;;;;;;;;;;;;10.93;100.00;97694.16;110134;1243;59737;-69
2023/08/09 03:54:14;;;;;;;;;;;;;;;10.98;100.00;97695.74;110142;1244;59634;-71
2023/08/09 03:56:43;;;;;;;;;;;;;;;11.01;100.00;97699.58;110261;1241;71867;-70
2023/08/09 03:59:13;;;;;;;;;;;;;;;11.04;100.00;97700.22;110217;1242;69263;-68
2023/08/09 04:01:43;;;;;;;;;;;;;;;11.08;100.00;97704.63;110261;1242;69878;-69
2023/08/09 04:04:13;;;;;;;;;;;;;;;11.13;100.00;97708.26;110211;1242;59676;-68
2023/08/09 04:06:43;;;;;;;;;;;;;;;11.17;100.00;97709.05;110202;1242;59710;-68
2023/08/09 04:09:14;;;;;;;;;;;;;;;11.08;100.00;97708.33;110244;1241;72024;-69
2023/08/09 04:11:43;;;;;;;;;;;;;;;11.25;100.00;97708.16;110231;1242;69221;-69
2023/08/09 04:14:13;;;;;;;;;;;;;;;11.39;100.00;97705.05;110188;1244;70329;-70
2023/08/09 04:16:43;;;;;;;;;;;;;;;11.56;100.00;97707.70;110170;1244;59701;-70
2023/08/09 04:19:14;;;;;;;;;;;;;;;11.69;100.00;97705.32;110273;1240;59740;-70
2023/08/09 04:21:44;;;;;;;;;;;;;;;11.77;100.00;97710.19;110209;1240;71212;-71
2023/08/09 04:24:15;;;;;;;;;;;;;;;12.00;100.00;97712.02;110242;1242;68437;-68
2023/08/09 04:26:44;;;;;;;;;;;;;;;12.16;100.00;97712.89;110260;1240;69939;-71
2023/08/09 04:29:13;;;;;;;;;;;;;;;12.33;100.00;97711.16;110252;1241;59690;-67
2023/08/09 04:31:44;;;;;;;;;;;;;;;12.45;100.00;97709.52;110254;1240;59766;-69
2023/08/09 04:34:14;;;;;;;;;;;;;;;12.61;100.00;97708.64;110265;1242;69928;-70
2023/08/09 04:36:43;;;;;;;;;;;;;;;12.79;100.00;97708.48;110280;1242;69735;-69
2023/08/09 04:39:13;;;;;;;;;;;;;;;12.98;100.00;97711.05;110251;1248;69276;-69
2023/08/09 04:41:42;;;;;;;;;;;;;;;13.10;100.00;97715.18;110244;1242;59672;-69
2023/08/09 04:44:13;;;;;;;;;;;;;;;13.19;100.00;97717.64;110297;1242;59682;-70
2023/08/09 04:46:42;;;;;;;;;;;;;;;13.25;100.00;97717.02;110333;1240;71203;-70
2023/08/09 04:49:12;;;;;;;;;;;;;;;13.37;100.00;97717.32;110300;1242;69213;-70
2023/08/09 04:51:41;;;;;;;;;;;;;;;13.51;100.00;97716.36;110310;1242;69293;-69
2023/08/09 04:54:11;;;;;;;;;;;;;;;13.72;100.00;97716.05;110292;1242;60124;-71
2023/08/09 04:56:40;;;;;;;;;;;;;;;13.98;100.00;97719.25;110256;1242;60187;-69
2023/08/09 04:59:09;;;;;;;;;;;;;;;14.29;100.00;97715.98;110263;1240;71855;-68
2023/08/09 05:01:38;;;;;;;;;;;;;;;14.58;100.00;97723.55;110309;1242;69826;-70
2023/08/09 05:04:08;;;;;;;;;;;;;;;14.72;100.00;97723.58;110264;1242;69958;-70
2023/08/09 05:06:36;;;;;;;;;;;;;;;14.98;100.00;97724.71;110268;1242;59737;-70
2023/08/09 05:09:06;;;;;;;;;;;;;;;15.15;100.00;97727.98;110242;1242;59636;-70
2023/08/09 05:11:35;;;;;;;;;;;;;;;15.36;100.00;97733.73;110216;1242;71956;-69
2023/08/09 05:14:04;;;;;;;;;;;;;;;15.72;100.00;97734.05;110234;1240;69847;-69
2023/08/09 05:16:34;;;;;;;;;;;;;;;16.02;99.25;97739.13;110273;1249;69106;-70
2023/08/09 05:19:03;;;;;;;;;;;;;;;16.33;97.19;97735.96;110259;1241;59723;-70
2023/08/09 05:21:33;;;;;;;;;;;;;;;16.58;95.08;97740.36;110266;1242;59699;-70
2023/08/09 05:24:02;;;;;;;;;;;;;;;17.02;95.90;97737.14;110194;1241;71407;-70
2023/08/09 05:26:31;;;;;;;;;;;;;;;17.38;90.03;97737.52;110217;1240;69741;-70
2023/08/09 05:29:00;;;;;;;;;;;;;;;17.44;87.86;97736.73;110192;1241;69880;-68
2023/08/09 05:31:29;;;;;;;;;;;;;;;17.62;87.83;97739.90;110199;1242;59808;-68
2023/08/09 05:33:58;;;;;;;;;;;;;;;17.73;85.35;97739.09;110226;1240;59808;-67
2023/08/09 05:36:27;;;;;;;;;;;;;;;17.79;85.36;97743.06;110240;1242;71952;-69
2023/08/09 05:38:56;;;;;;;;;;;;;;;17.73;83.81;97745.41;110182;1241;68726;-68
2023/08/09 05:41:25;;;;;;;;;;;;;;;18.09;84.07;97745.65;110169;1242;69267;-68
2023/08/09 05:43:53;;;;;;;;;;;;;;;18.53;81.71;97744.58;110208;1242;59736;-69
2023/08/09 05:46:22;;;;;;;;;;;;;;;18.74;80.46;97747.11;110205;1242;59740;-69
2023/08/09 05:48:52;;;;;;;;;;;;;;;18.75;79.73;97749.41;110224;1242;69667;-69
2023/08/09 05:51:21;;;;;;;;;;;;;;;18.61;78.19;97749.46;110193;1241;68481;-68
2023/08/09 05:53:51;;;;;;;;;;;;;;;18.80;77.75;97747.92;110213;1241;69079;-69
2023/08/09 05:56:20;;;;;;;;;;;;;;;19.11;77.26;97745.45;110214;1241;59661;-70
2023/08/09 05:58:49;;;;;;;;;;;;;;;19.27;76.01;97744.70;110263;1242;59691;-70
2023/08/09 06:01:18;;;;;;;;;;;;;;;19.46;74.24;97748.54;110265;1242;71550;-69
2023/08/09 06:03:47;;;;;;;;;;;;;;;19.45;73.59;97748.86;110271;1242;69057;-68
2023/08/09 06:06:16;;;;;;;;;;;;;;;19.84;73.22;97753.06;110235;1246;69062;-69
2023/08/09 06:08:46;;;;;;;;;;;;;;;19.88;73.10;97756.42;110257;1242;59766;-69
2023/08/09 06:11:16;;;;;;;;;;;;;;;20.18;72.33;97756.19;110235;1242;60069;-70
2023/08/09 06:13:46;;;;;;;;;;;;;;;20.29;72.36;97757.20;110234;1241;70856;-69
2023/08/09 06:16:15;;;;;;;;;;;;;;;20.68;71.39;97752.73;110272;1242;69268;-69
2023/08/09 06:18:44;;;;;;;;;;;;;;;21.13;70.80;97750.50;110224;1242;68711;-70
2023/08/09 06:21:13;;;;;;;;;;;;;;;21.58;69.69;97752.35;110237;1241;59673;-68
2023/08/09 06:23:42;;;;;;;;;;;;;;;21.85;68.10;97751.32;110259;1242;59669;-68
2023/08/09 06:26:11;;;;;;;;;;;;;;;22.09;65.89;97750.86;110235;1242;71365;-69
2023/08/09 06:28:41;;;;;;;;;;;;;;;22.10;64.18;97747.02;110280;1242;69371;-69
2023/08/09 06:31:10;;;;;;;;;;;;;;;22.29;63.92;97741.96;110231;1241;68636;-68
2023/08/09 06:33:42;;;;;;;;;;;;;;;22.27;62.07;97740.28;110226;1242;59665;-68
2023/08/09 06:36:12;;;;;;;;;;;;;;;22.39;63.50;97739.92;110244;1240;59754;-69
2023/08/09 06:38:41;;;;;;;;;;;;;;;22.42;63.71;97739.67;110241;1242;70617;-69
2023/08/09 06:41:10;;;;;;;;;;;;;;;22.39;62.80;97742.82;110247;1242;69636;-68
2023/08/09 06:43:40;;;;;;;;;;;;;;;22.68;63.96;97737.59;110233;1242;69097;-67
2023/08/09 06:46:09;;;;;;;;;;;;;;;23.03;62.78;97737.77;110229;1242;59677;-67
2023/08/09 06:48:38;;;;;;;;;;;;;;;22.75;62.27;97734.45;110257;1240;59789;-68
2023/08/09 06:51:07;;;;;;;;;;;;;;;22.62;62.65;97740.27;110236;1241;71929;-67
2023/08/09 06:53:37;;;;;;;;;;;;;;;23.04;63.54;97732.88;110234;1242;69438;-67
2023/08/09 06:56:06;;;;;;;;;;;;;;;23.33;62.49;97733.33;110268;1241;68430;-68
2023/08/09 06:58:35;;;;;;;;;;;;;;;23.39;60.71;97731.16;110218;1241;59740;-68
2023/08/09 07:01:04;;;;;;;;;;;;;;;23.93;61.77;97729.95;110231;1242;59669;-67
2023/08/09 07:03:33;;;;;;;;;;;;;;;24.29;57.20;97726.40;110257;1241;71217;-68
2023/08/09 07:06:03;;;;;;;;;;;;;;;24.57;56.99;97730.02;110262;1242;69815;-66
2023/08/09 07:08:32;;;;;;;;;;;;;;;24.89;57.86;97727.23;110238;1241;68528;-68
2023/08/09 07:11:01;;;;;;;;;;;;;;;25.20;53.14;97725.98;110211;1242;59764;-68
2023/08/09 07:13:30;;;;;;;;;;;;;;;24.95;52.84;97725.58;110263;1242;59675;-67
2023/08/09 07:15:59;;;;;;;;;;;;;;;25.00;53.13;97722.33;110265;1242;70648;-68
2023/08/09 07:18:28;;;;;;;;;;;;;;;24.83;50.52;97720.73;110183;1241;69623;-68
2023/08/09 07:20:58;;;;;;;;;;;;;;;25.07;52.68;97722.17;110193;1242;69272;-68
2023/08/09 07:23:28;;;;;;;;;;;;;;;25.00;51.76;97722.25;110177;1242;59669;-67
2023/08/09 07:26:18;;;;;;;;;;;;;;;24.94;51.31;97723.07;110186;1242;59630;-68
2023/08/09 07:28:47;;;;;;;;;;;;;;;24.84;51.70;97723.60;110261;1242;71988;-68
2023/08/09 07:31:20;;;;;;;;;;;;;;;25.18;52.15;97719.42;110220;1242;69048;-67
2023/08/09 07:33:49;;;;;;;;;;;;;;;25.51;50.79;97718.27;110185;1242;69054;-68
2023/08/09 07:36:18;;;;;;;;;;;;;;;25.81;49.21;97718.42;110258;1242;59740;-67
2023/08/09 07:38:48;;;;;;;;;;;;;;;26.25;50.13;97720.60;110152;1243;59657;-69
2023/08/09 07:41:18;;;;;;;;;;;;;;;26.44;48.52;97719.10;110160;1242;70627;-68
2023/08/09 07:43:48;;;;;;;;;;;;;;;26.32;46.84;97717.77;110197;1242;69012;-68
2023/08/09 07:46:17;;;;;;;;;;;;;;;26.17;46.36;97720.17;110226;1242;69308;-69
2023/08/09 07:48:46;;;;;;;;;;;;;;;26.18;46.34;97719.65;110208;1242;59814;-68
2023/08/09 07:51:16;;;;;;;;;;;;;;;26.10;45.31;97717.61;110196;1241;59814;-66
2023/08/09 07:53:45;;;;;;;;;;;;;;;25.86;45.11;97717.41;110215;1242;71348;-67
2023/08/09 07:56:14;;;;;;;;;;;;;;;25.77;46.42;97714.84;110228;1242;69271;-66
2023/08/09 07:58:43;;;;;;;;;;;;;;;25.99;44.66;97714.13;110216;1242;69259;-68
2023/08/09 08:01:13;;;;;;;;;;;;;;;26.39;43.42;97711.98;110226;1240;59731;-67
2023/08/09 08:03:42;;;;;;;;;;;;;;;26.55;42.20;97712.76;110221;1242;59702;-68
2023/08/09 08:06:11;;;;;;;;;;;;;;;26.55;41.68;97711.23;110218;1242;70655;-68
2023/08/09 08:08:41;;;;;;;;;;;;;;;26.48;41.33;97712.46;110240;1241;69291;-68
2023/08/09 08:11:11;;;;;;;;;;;;;;;26.49;39.18;97706.84;110215;1242;69101;-68
2023/08/09 08:13:40;;;;;;;;;;;;;;;25.96;39.89;97706.08;110249;1242;59757;-67
2023/08/09 08:16:09;;;;;;;;;;;;;;;26.01;41.15;97705.84;110227;1241;59639;-67
2023/08/09 08:18:39;;;;;;;;;;;;;;;26.29;41.46;97702.57;110212;1242;70748;-68
2023/08/09 08:21:08;;;;;;;;;;;;;;;26.54;36.23;97703.38;110244;1242;69839;-68
2023/08/09 08:23:37;;;;;;;;;;;;;;;26.74;36.61;97705.24;110216;1242;69671;-67
2023/08/09 08:26:06;;;;;;;;;;;;;;;26.92;34.79;97705.11;110220;1241;60050;-69
2023/08/09 08:28:35;;;;;;;;;;;;;;;27.47;35.56;97700.30;110257;1242;59681;-67
2023/08/09 08:31:05;;;;;;;;;;;;;;;27.67;36.80;97705.45;110470;1241;71459;-66
2023/08/09 08:33:34;;;;;;;;;;;;;;;27.45;33.66;97700.87;110212;1242;69928;-69
2023/08/09 08:36:03;;;;;;;;;;;;;;;27.79;36.70;97704.45;110258;1242;69671;-68
2023/08/09 08:38:50;;;;;;;;;;;;;;;27.86;37.07;97704.13;110436;1242;59673;-67
2023/08/09 08:41:19;;;;;;;;;;;;;;;27.94;35.99;97707.68;110414;1242;59628;-68
2023/08/09 08:43:49;;;;;;;;;;;;;;;28.33;34.95;97706.09;110351;1241;71862;-67
2023/08/09 08:46:20;;;;;;;;;;;;;;;28.52;34.53;97701.98;109858;1242;699718;-68
2023/08/09 08:48:50;;;;;;;;;;;;;;;28.57;33.32;97699.17;110373;1241;69745;-69
2023/08/09 08:51:24;;;;;;;;;;;;;;;28.45;32.63;97699.96;110432;1242;59672;-67
2023/08/09 08:53:54;;;;;;;;;;;;;;;28.16;32.77;97697.63;110369;1241;59697;-66
2023/08/09 08:56:23;;;;;;;;;;;;;;;27.44;33.15;97695.52;110328;1241;70792;-68
2023/08/09 08:58:52;;;;;;;;;;;;;;;27.62;31.05;97691.94;110201;1242;68183;-68
2023/08/09 09:01:23;;;;;;;;;;;;;;;28.10;31.82;97690.00;110205;1241;68512;-68
2023/08/09 09:03:51;;;;;;;;;;;;;;;28.22;30.03;97685.61;110342;1242;59676;-67
2023/08/09 09:06:21;;;;;;;;;;;;;;;28.54;32.67;97683.12;110445;1241;59696;-67
2023/08/09 09:08:56;;;;;;;;;;;;;;;28.69;32.12;97676.98;110169;1242;71276;-67
2023/08/09 09:11:26;;;;;;;;;;;;;;;29.18;31.25;97669.90;110173;1242;69795;-68
2023/08/09 09:13:54;;;;;;;;;;;;;;;29.23;31.54;97668.86;110184;1241;68553;-66
2023/08/09 09:16:24;;;;;;;;;;;;;;;29.51;30.27;97667.80;110176;1242;59687;-68
2023/08/09 09:18:54;;;;;;;;;;;;;;;29.64;30.31;97668.15;110167;1242;59739;-68
2023/08/09 09:21:28;;;;;;;;;;;;;;;30.11;29.09;97668.50;110226;1242;71988;-68
2023/08/09 09:24:01;;;;;;;;;;;;;;;30.34;28.89;97667.59;110462;1242;69788;-67
2023/08/09 09:26:30;;;;;;;;;;;;;;;30.48;28.37;97662.92;110333;1240;69856;-69
2023/08/09 09:28:59;;;;;;;;;;;;;;;30.30;28.29;97662.06;110472;1240;59766;-68
2023/08/09 09:31:39;;;;;;;;;;;;;;;29.84;28.09;97657.52;110386;1240;59656;-68
2023/08/09 09:34:11;;;;;;;;;;;;;;;30.38;28.54;97649.94;110462;1242;71041;-69
2023/08/09 09:36:48;;;;;;;;;;;;;;;30.32;27.49;97646.59;110295;1239;69553;-69
2023/08/09 09:39:17;;;;;;;;;;;;;;;29.85;28.80;97641.92;110437;1241;69092;-69
2023/08/09 09:41:46;;;;;;;;;;;;;;;30.02;28.95;97642.34;110307;1239;59727;-67
2023/08/09 09:44:23;;;;;;;;;;;;;;;30.20;28.28;97639.23;110188;1241;59738;-68
2023/08/09 09:46:57;;;;;;;;;;;;;;;30.22;28.41;97638.48;110409;1241;71820;-68
2023/08/09 09:49:27;;;;;;;;;;;;;;;30.41;27.76;97636.04;110454;1241;69782;-66
2023/08/09 09:51:57;;;;;;;;;;;;;;;29.19;28.35;97630.95;110445;1241;69148;-67
2023/08/09 09:54:26;;;;;;;;;;;;;;;28.06;30.36;97631.47;110246;1240;59766;-69
2023/08/09 09:56:55;;;;;;;;;;;;;;;29.07;29.85;97624.15;110183;1242;59653;-68
2023/08/09 09:59:24;;;;;;;;;;;;;;;29.94;29.83;97623.42;110230;1242;71174;-68
2023/08/09 10:01:53;;;;;;;;;;;;;;;30.39;28.27;97621.70;110169;1242;69358;-70
2023/08/09 10:04:24;;;;;;;;;;;;;;;30.36;28.71;97621.13;110310;1242;68487;-67
2023/08/09 10:06:53;;;;;;;;;;;;;;;30.36;27.43;97622.38;110284;1242;59675;-67
2023/08/09 10:09:24;;;;;;;;;;;;;;;29.75;28.12;97613.20;110507;1242;59725;-67
2023/08/09 10:11:55;;;;;;;;;;;;;;;30.10;29.60;97611.79;110285;1242;71976;-67
2023/08/09 10:14:26;;;;;;;;;;;;;;;30.55;28.24;97608.67;110347;1241;69393;-69
2023/08/09 10:16:55;;;;;;;;;;;;;;;29.92;28.66;97604.50;110552;1247;69966;-67
2023/08/09 10:19:43;;;;;;;;;;;;;;;31.00;28.12;97606.06;110544;1243;59686;-68
2023/08/09 10:22:13;;;;;;;;;;;;;;;31.57;27.92;97604.98;110468;1242;59734;-67
2023/08/09 10:24:43;;;;;;;;;;;;;;;30.82;28.11;97599.88;110475;1241;71305;-67
2023/08/09 10:27:12;;;;;;;;;;;;;;;31.21;28.41;97594.58;110336;1241;69590;-68
2023/08/09 10:29:41;;;;;;;;;;;;;;;31.71;27.30;97592.15;110546;1242;69877;-68
2023/08/09 10:32:10;;;;;;;;;;;;;;;31.69;27.75;97591.52;110514;1241;59741;-68
2023/08/09 10:34:42;;;;;;;;;;;;;;;30.91;28.09;97578.32;110460;1242;59679;-67
2023/08/09 10:37:21;;;;;;;;;;;;;;;31.40;28.14;97582.44;110471;1241;71346;-68
2023/08/09 10:40:10;;;;;;;;;;;;;;;31.66;28.14;97578.08;110495;1242;69815;-68
2023/08/09 10:42:39;;;;;;;;;;;;;;;31.45;27.83;97579.30;110263;1242;69843;-68
2023/08/09 10:45:08;;;;;;;;;;;;;;;31.38;27.87;97576.58;110535;1241;59741;-67
2023/08/09 10:47:39;;;;;;;;;;;;;;;31.10;27.34;97567.66;110397;1242;59671;-68
2023/08/09 10:50:10;;;;;;;;;;;;;;;31.18;27.35;97568.39;110552;1242;70758;-68
2023/08/09 10:52:47;;;;;;;;;;;;;;;31.31;28.71;97561.02;110441;1239;68587;-67
2023/08/09 10:55:19;;;;;;;;;;;;;;;31.22;29.69;97560.57;110470;1241;69093;-68
2023/08/09 10:57:50;;;;;;;;;;;;;;;30.66;29.53;97558.13;110509;1242;59728;-68
2023/08/09 11:00:20;;;;;;;;;;;;;;;31.21;29.32;97554.95;110526;1241;59626;-69
2023/08/09 11:02:50;;;;;;;;;;;;;;;31.22;28.52;97550.80;110442;1242;70790;-67
2023/08/09 11:05:20;;;;;;;;;;;;;;;30.87;29.19;97546.91;110480;1248;69745;-69
2023/08/09 11:07:51;;;;;;;;;;;;;;;31.12;29.00;97546.61;110408;1241;69254;-68
2023/08/09 11:10:39;;;;;;;;;;;;;;;30.62;28.41;97544.67;110558;1241;60081;-69
2023/08/09 11:13:13;;;;;;;;;;;;;;;30.22;29.21;97539.87;110588;1240;59704;-68
2023/08/09 11:15:43;;;;;;;;;;;;;;;29.47;29.90;97539.09;110493;1241;71397;-66
2023/08/09 11:18:12;;;;;;;;;;;;;;;29.22;30.57;97538.71;110420;1242;68684;-65
2023/08/09 11:20:42;;;;;;;;;;;;;;;28.82;31.68;97537.16;110453;1241;69294;-67
2023/08/09 11:23:11;;;;;;;;;;;;;;;28.93;32.21;97533.27;110515;1240;59698;-68
2023/08/09 11:25:42;;;;;;;;;;;;;;;29.29;30.71;97530.64;110444;1240;59743;-66
2023/08/09 11:28:12;;;;;;;;;;;;;;;29.72;29.39;97533.52;110433;1240;71378;-68
2023/08/09 11:30:41;;;;;;;;;;;;;;;30.09;31.36;97528.06;110440;1242;69284;-68
2023/08/09 11:33:11;;;;;;;;;;;;;;;30.87;29.24;97522.71;110394;1239;69479;-68
2023/08/09 11:35:43;;;;;;;;;;;;;;;31.08;28.23;97523.85;110409;1242;59737;-67
2023/08/09 11:38:15;;;;;;;;;;;;;;;29.72;29.38;97520.56;110487;1241;59679;-68
2023/08/09 11:40:49;;;;;;;;;;;;;;;29.50;30.05;97521.02;110352;1242;71146;-68
2023/08/09 11:43:21;;;;;;;;;;;;;;;30.12;29.66;97520.50;110423;1241;69882;-68
2023/08/09 11:45:54;;;;;;;;;;;;;;;30.85;28.98;97516.35;110348;1241;69861;-68
2023/08/09 11:48:24;;;;;;;;;;;;;;;30.50;29.66;97512.20;110338;1241;59743;-68
2023/08/09 11:51:13;;;;;;;;;;;;;;;30.90;28.49;97509.19;110460;1241;59737;-69
2023/08/09 11:53:44;;;;;;;;;;;;;;;31.33;28.60;97504.90;110539;1241;71731;-68
2023/08/09 11:56:20;;;;;;;;;;;;;;;31.81;29.41;97499.71;110555;1242;69028;-68
2023/08/09 11:58:50;;;;;;;;;;;;;;;32.05;28.93;97496.80;110424;1242;69286;-68
2023/08/09 12:01:20;;;;;;;;;;;;;;;31.49;27.19;97497.96;110363;1241;59760;-67
2023/08/09 12:03:51;;;;;;;;;;;;;;;30.94;26.95;97491.51;110384;1242;59693;-70
2023/08/09 12:06:34;;;;;;;;;;;;;;;29.78;28.68;97490.74;110460;1241;71924;-69
2023/08/09 12:09:23;;;;;;;;;;;;;;;29.72;31.41;97491.19;110406;1241;69799;-68
2023/08/09 12:11:54;;;;;;;;;;;;;;;30.13;30.14;97494.73;110529;1242;69849;-68
2023/08/09 12:14:23;;;;;;;;;;;;;;;30.31;28.00;97488.91;110425;1242;59740;-68
2023/08/09 12:16:52;;;;;;;;;;;;;;;30.20;27.69;97484.51;110389;1241;59625;-68
2023/08/09 12:19:20;;;;;;;;;;;;;;;30.32;27.44;97482.47;110430;1241;71921;-68
2023/08/09 12:21:49;;;;;;;;;;;;;;;30.22;27.90;97479.98;110389;1249;69331;-68
2023/08/09 12:24:18;;;;;;;;;;;;;;;30.58;28.47;97480.42;110311;1241;69266;-68
2023/08/09 12:26:47;;;;;;;;;;;;;;;30.74;27.54;97478.75;110304;1241;59734;-67
2023/08/09 12:29:17;;;;;;;;;;;;;;;30.37;27.32;97478.91;110367;1242;59740;-68
2023/08/09 12:31:46;;;;;;;;;;;;;;;29.46;28.22;97473.91;110434;1240;71370;-70
2023/08/09 12:34:16;;;;;;;;;;;;;;;28.19;28.85;97474.91;110449;1243;69040;-69
2023/08/09 12:36:44;;;;;;;;;;;;;;;27.96;29.86;97473.33;110386;1242;69095;-68
2023/08/09 12:39:16;;;;;;;;;;;;;;;28.13;30.79;97473.86;110373;1242;59724;-69
2023/08/09 12:41:46;;;;;;;;;;;;;;;28.59;29.29;97472.45;110321;1241;59692;-70
2023/08/09 12:44:15;;;;;;;;;;;;;;;28.93;29.27;97471.08;110491;1241;70955;-69
2023/08/09 12:46:44;;;;;;;;;;;;;;;28.73;28.85;97465.60;110421;1242;69827;-69
2023/08/09 12:49:13;;;;;;;;;;;;;;;28.39;32.20;97462.29;110296;1241;69907;-68
2023/08/09 12:51:41;;;;;;;;;;;;;;;28.49;32.48;97465.23;110319;1241;59730;-68
2023/08/09 12:54:11;;;;;;;;;;;;;;;28.54;33.46;97459.26;110521;1242;59765;-68